Brandy Bar — WDF7323 — position and weather

sailwx.info

Track history (hours):
 
Tides and Currents Weather Stations Pressure Air Temp Water Temp Dewpoint Dewpoint Depression Visibility Wind Speed Wind Dir Waves Ship Positions

Brandy Bar

Owner: Brandy Bar, Tiburon, CA. More information available from US FCC via Universal Licensing System and Coast Guard Vessel Documentation Center.

Last reported at 2016-Dec-08 01:33 UTC. Time now 2016-Dec-09 07:53 UTC.
Position N 38°03' W 122°12'.

Type: Towing. MMSI: 367483310.

Date/timePositionNaut miles runAvg speedWind from/ knotsBaromVisibWave heightAir tempDewpointWater temp
2016-Dec-08 01:33N 38°03' W 122°12'6 6.0
2016-Dec-08 00:34N 38°03' W 122°19'8 7.3
2016-Dec-07 23:29N 37°57' W 122°26'6 6.6
2016-Dec-07 22:34N 37°52' W 122°29'2 1.6
2016-Dec-07 21:34N 37°53' W 122°30'3 3.4
2016-Dec-07 20:33N 37°54' W 122°26'7 7.0
2016-Dec-07 19:34N 38°01' W 122°23'7 6.4
2016-Dec-07 18:32N 38°04' W 122°15'5 5.0
2016-Dec-07 17:34N 38°03' W 122°10'0 0.1
2016-Dec-07 16:33N 38°02' W 122°09'0 0.0
2016-Dec-06 23:32N 38°02' W 122°10'5 5.3
2016-Dec-06 22:33N 38°04' W 122°16'5 2.6
2016-Dec-06 20:33N 38°03' W 122°09'5 2.3
2016-Dec-06 18:33N 38°04' W 122°15'1 0.8
2016-Dec-06 17:33N 38°04' W 122°16'5 3.9
2016-Dec-06 16:11N 38°02' W 122°09'0 0.0
2016-Dec-06 15:11N 38°02' W 122°09'0 0.0
2016-Dec-06 01:24N 38°03' W 122°09'2 1.0
2016-Dec-05 23:30N 38°03' W 122°12'2 1.9
2016-Dec-05 22:33N 38°04' W 122°14'4 1.5
2016-Dec-05 20:08N 38°03' W 122°09'0 0.0
2016-Dec-05 19:29N 38°03' W 122°09'0 0.2
2016-Dec-05 18:25N 38°03' W 122°09'  
2016-Dec-02 23:32N 38°02' W 122°10'5 5.3
2016-Dec-02 22:33N 38°04' W 122°16'5 2.3
2016-Dec-02 20:15N 38°02' W 122°09'0 0.0
2016-Dec-02 18:10N 38°03' W 122°09'0 0.0
2016-Dec-02 17:04N 38°03' W 122°09'0 0.0
2016-Dec-02 16:30N 38°03' W 122°09'0 0.0
2016-Dec-02 15:25N 38°03' W 122°09'0 0.0
2016-Dec-01 23:30N 38°03' W 122°09'3 2.6
2016-Dec-01 22:31N 38°03' W 122°13'3 1.9
2016-Dec-01 21:10N 38°03' W 122°09'0 0.1
2016-Dec-01 20:32N 38°02' W 122°09'4 3.7
2016-Dec-01 19:28N 38°04' W 122°14'4 3.8
2016-Dec-01 18:26N 38°03' W 122°09'0 0.1
2016-Dec-01 17:26N 38°03' W 122°09'5 6.0
2016-Dec-01 16:33N 38°04' W 122°16'5 5.0
2016-Dec-01 15:31N 38°03' W 122°09'0 0.1
2016-Dec-01 14:33N 38°03' W 122°09'2 0.1
2016-Nov-30 23:20N 38°03' W 122°12'3 3.8
2016-Nov-30 22:29N 38°04' W 122°15'5 5.0
2016-Nov-30 21:30N 38°03' W 122°09'2 2.3
2016-Nov-30 20:33N 38°03' W 122°12'2 1.0
2016-Nov-30 18:26N 38°02' W 122°09'4 4.4
2016-Nov-30 17:29N 38°04' W 122°15'4 3.3
2016-Nov-30 16:15N 38°03' W 122°09'0 0.0
2016-Nov-30 00:28N 38°02' W 122°09'4 4.1
2016-Nov-29 23:33N 38°04' W 122°14'4 3.5
2016-Nov-29 22:28N 38°03' W 122°09'2 2.0
2016-Nov-29 21:24N 38°03' W 122°12'2 2.2
2016-Nov-29 20:33N 38°04' W 122°14'4 3.7
2016-Nov-29 19:29N 38°03' W 122°09'2 2.1
2016-Nov-29 18:33N 38°03' W 122°12'1 1.0
2016-Nov-29 17:27N 38°03' W 122°10'2 2.6
2016-Nov-29 16:33N 38°04' W 122°13'2 1.7
2016-Nov-29 15:33N 38°03' W 122°11'2 0.1
2016-Nov-29 00:12N 38°02' W 122°09'2 2.4
2016-Nov-28 23:30N 38°03' W 122°11'2 2.4
2016-Nov-28 22:30N 38°04' W 122°14'2 2.2
2016-Nov-28 21:27N 38°03' W 122°11'2 2.1
2016-Nov-28 20:28N 38°04' W 122°14'4 3.5
2016-Nov-28 19:24N 38°02' W 122°09'0 0.1
2016-Nov-28 18:03N 38°02' W 122°09'4 8.2
2016-Nov-28 17:33N 38°04' W 122°15'  
Track history (hours):
 
Tides and Currents Weather Stations Pressure Air Temp Water Temp Dewpoint Dewpoint Depression Visibility Wind Speed Wind Dir Waves Ship Positions

Brandy Bar

Owner: Brandy Bar, Tiburon, CA. More information available from US FCC via Universal Licensing System and Coast Guard Vessel Documentation Center.

Last reported at 2016-Dec-08 01:33 UTC. Time now 2016-Dec-09 07:53 UTC.
Position N 38°03' W 122°12'.

Type: Towing. MMSI: 367483310.

Date/timePositionNaut miles runAvg speedWind from/ knotsBaromVisibWave heightAir tempDewpointWater temp
2016-Dec-08 01:33N 38°03' W 122°12'6 6.0
2016-Dec-08 00:34N 38°03' W 122°19'8 7.3
2016-Dec-07 23:29N 37°57' W 122°26'6 6.6
2016-Dec-07 22:34N 37°52' W 122°29'2 1.6
2016-Dec-07 21:34N 37°53' W 122°30'3 3.4
2016-Dec-07 20:33N 37°54' W 122°26'7 7.0
2016-Dec-07 19:34N 38°01' W 122°23'7 6.4
2016-Dec-07 18:32N 38°04' W 122°15'5 5.0
2016-Dec-07 17:34N 38°03' W 122°10'0 0.1
2016-Dec-07 16:33N 38°02' W 122°09'0 0.0
2016-Dec-06 23:32N 38°02' W 122°10'5 5.3
2016-Dec-06 22:33N 38°04' W 122°16'5 2.6
2016-Dec-06 20:33N 38°03' W 122°09'5 2.3
2016-Dec-06 18:33N 38°04' W 122°15'1 0.8
2016-Dec-06 17:33N 38°04' W 122°16'5 3.9
2016-Dec-06 16:11N 38°02' W 122°09'0 0.0
2016-Dec-06 15:11N 38°02' W 122°09'0 0.0
2016-Dec-06 01:24N 38°03' W 122°09'2 1.0
2016-Dec-05 23:30N 38°03' W 122°12'2 1.9
2016-Dec-05 22:33N 38°04' W 122°14'4 1.5
2016-Dec-05 20:08N 38°03' W 122°09'0 0.0
2016-Dec-05 19:29N 38°03' W 122°09'0 0.2
2016-Dec-05 18:25N 38°03' W 122°09'  
2016-Dec-02 23:32N 38°02' W 122°10'5 5.3
2016-Dec-02 22:33N 38°04' W 122°16'5 2.3
2016-Dec-02 20:15N 38°02' W 122°09'0 0.0
2016-Dec-02 18:10N 38°03' W 122°09'0 0.0
2016-Dec-02 17:04N 38°03' W 122°09'0 0.0
2016-Dec-02 16:30N 38°03' W 122°09'0 0.0
2016-Dec-02 15:25N 38°03' W 122°09'0 0.0
2016-Dec-01 23:30N 38°03' W 122°09'3 2.6
2016-Dec-01 22:31N 38°03' W 122°13'3 1.9
2016-Dec-01 21:10N 38°03' W 122°09'0 0.1
2016-Dec-01 20:32N 38°02' W 122°09'4 3.7
2016-Dec-01 19:28N 38°04' W 122°14'4 3.8
2016-Dec-01 18:26N 38°03' W 122°09'0 0.1
2016-Dec-01 17:26N 38°03' W 122°09'5 6.0
2016-Dec-01 16:33N 38°04' W 122°16'5 5.0
2016-Dec-01 15:31N 38°03' W 122°09'0 0.1
2016-Dec-01 14:33N 38°03' W 122°09'2 0.1
2016-Nov-30 23:20N 38°03' W 122°12'3 3.8
2016-Nov-30 22:29N 38°04' W 122°15'5 5.0
2016-Nov-30 21:30N 38°03' W 122°09'2 2.3
2016-Nov-30 20:33N 38°03' W 122°12'2 1.0
2016-Nov-30 18:26N 38°02' W 122°09'4 4.4
2016-Nov-30 17:29N 38°04' W 122°15'4 3.3
2016-Nov-30 16:15N 38°03' W 122°09'0 0.0
2016-Nov-30 00:28N 38°02' W 122°09'4 4.1
2016-Nov-29 23:33N 38°04' W 122°14'4 3.5
2016-Nov-29 22:28N 38°03' W 122°09'2 2.0
2016-Nov-29 21:24N 38°03' W 122°12'2 2.2
2016-Nov-29 20:33N 38°04' W 122°14'4 3.7
2016-Nov-29 19:29N 38°03' W 122°09'2 2.1
2016-Nov-29 18:33N 38°03' W 122°12'1 1.0
2016-Nov-29 17:27N 38°03' W 122°10'2 2.6
2016-Nov-29 16:33N 38°04' W 122°13'2 1.7
2016-Nov-29 15:33N 38°03' W 122°11'2 0.1
2016-Nov-29 00:12N 38°02' W 122°09'2 2.4
2016-Nov-28 23:30N 38°03' W 122°11'2 2.4
2016-Nov-28 22:30N 38°04' W 122°14'2 2.2
2016-Nov-28 21:27N 38°03' W 122°11'2 2.1
2016-Nov-28 20:28N 38°04' W 122°14'4 3.5
2016-Nov-28 19:24N 38°02' W 122°09'0 0.1
2016-Nov-28 18:03N 38°02' W 122°09'4 8.2
2016-Nov-28 17:33N 38°04' W 122°15'  

Dump ship's entire track history